Flight Track Log - Related Links

Times and Time Zones

All times are in EDT time to prevent confusion due to time zone crossing. See the UPS376 flight status page for this flight to view local times or setup timezone preferences in your user account.

Time Position Orientation Groundspeed Altitude Reporting Facility
EDT Latitude Longitude Course Direction KTS MPH feet Rate Location/Type
Sat 10:09:10 AM 25.5932 -80.1821 208° Southwest 284 327 6,900  Level FlightAware ADS-B (KEYW)
Sat 10:09:41 AM 25.5534 -80.2047 207° Southwest 288 331 8,100 2,459 Climbing FlightAware ADS-B (KEYW)
Sat 10:10:11 AM 25.5170 -80.2251 207° Southwest 302 348 9,400 2,400 Climbing FlightAware ADS-B (KEYW)
Sat 10:10:41 AM 25.4785 -80.2466 207° Southwest 320 368 10,500 2,300 Climbing FlightAware ADS-B (KEYW)
Sat 10:11:11 AM 25.4356 -80.2704 207° Southwest 341 392 11,700 3,000 Climbing FlightAware ADS-B (KEYW)
Sat 10:11:41 AM 25.3939 -80.2935 207° Southwest 350 403 13,500 2,700 Climbing FlightAware ADS-B (KEYW)
Sat 10:12:11 AM 25.3446 -80.3152 200° South 388 447 14,400 2,300 Climbing FlightAware ADS-B (KEYW)
Sat 10:12:41 AM 25.2913 -80.3341 197° South 407 468 15,800 2,852 Climbing FlightAware ADS-B (KEYW)
Sat 10:13:12 AM 25.2356 -80.3522 197° South 420 483 17,300 2,852 Climbing FlightAware ADS-B (KEYW)
Sat 10:13:42 AM 25.1786 -80.3706 197° South 433 498 18,700 2,900 Climbing FlightAware ADS-B (KEYW)
Sat 10:14:12 AM 25.1189 -80.3898 197° South 442 509 20,200 2,800 Climbing FlightAware ADS-B (KEYW)
Sat 10:14:42 AM 25.0608 -80.4088 197° South 454 522 21,500 2,600 Climbing FlightAware ADS-B (KEYW)
Sat 10:15:12 AM 24.9985 -80.4293 197° South 463 533 22,800 2,400 Climbing FlightAware ADS-B (KEYW)
Sat 10:15:42 AM 24.9357 -80.4498 197° South 474 545 23,900 2,361 Climbing FlightAware ADS-B (KEYW)
Sat 10:16:13 AM 24.8712 -80.4714 198° South 481 554 25,200 2,500 Climbing FlightAware ADS-B (KEYW)
Sat 10:16:42 AM 24.8061 -80.4933 197° South 489 563 26,400 2,300 Climbing FlightAware ADS-B (KEYW)
Sat 10:17:13 AM 24.7401 -80.5152 197° South 497 572 27,500 2,164 Climbing FlightAware ADS-B (KEYW)
Sat 10:17:43 AM 24.6729 -80.5375 197° South 504 580 28,600 2,600 Climbing FlightAware ADS-B (KEYW)
Sat 10:18:13 AM 24.6058 -80.5599 197° South 498 573 30,100 2,900 Climbing FlightAware ADS-B (KEYW)
Sat 10:18:43 AM 24.5402 -80.5817 197° South 493 567 31,500 2,700 Climbing FlightAware ADS-B (KEYW)
Sat 10:19:13 AM 24.4756 -80.6031 197° South 490 564 32,800 2,240 Climbing FlightAware ADS-B (KEYW)
Sat 10:19:58 AM 24.3763 -80.6359 197° South 489 563 34,300 1,760 Climbing FlightAware ADS-B (KEYW)
Sat 10:20:28 AM 24.3115 -80.6573 198° South 488 562 35,000 689 Climbing FlightAware ADS-B (KEYW)
Sat 10:20:59 AM 24.2477 -80.6813 201° Southwest 488 562 35,000  Level FlightAware ADS-B (KEYW)
Sat 10:21:29 AM 24.1821 -80.7088 202° Southwest 486 559 35,000  Level FlightAware ADS-B (KEYW)
Sat 10:21:59 AM 24.1201 -80.7354 202° Southwest 483 556 35,000  Level FlightAware ADS-B (KEYW)
Sat 10:22:29 AM 24.0561 -80.7630 202° Southwest 484 557 35,000  Level FlightAware ADS-B (KEYW)
Sat 10:22:59 AM 23.9938 -80.7899 202° Southwest 485 558 35,000 100 Level FlightAware ADS-B (KEYW)
Sat 10:23:29 AM 23.9308 -80.8171 202° Southwest 484 557 35,100 79 Climbing FlightAware ADS-B (KEYW)
Sat 10:24:15 AM 23.8363 -80.8578 202° Southwest 484 557 35,100  Level FlightAware ADS-B (KEYW)
Sat 10:24:45 AM 23.7727 -80.8850 202° Southwest 484 557 35,100  Level FlightAware ADS-B (KEYW)
Sat 10:25:15 AM 23.7095 -80.9121 202° Southwest 483 556 35,100 -100 Level FlightAware ADS-B (KEYW)
Sat 10:25:45 AM 23.6476 -80.9385 202° Southwest 483 556 35,000 -100 Descending FlightAware ADS-B (KEYW)
Sat 10:26:15 AM 23.5849 -80.9652 202° Southwest 482 555 35,000  Level FlightAware ADS-B (KEYW)
Sat 10:26:45 AM 23.5223 -80.9920 202° Southwest 482 555 35,000  Level FlightAware ADS-B (KEYW)
Sat 10:27:16 AM 23.4592 -81.0188 202° Southwest 482 555 35,000 98 Level FlightAware ADS-B (KEYW)
Sat 10:27:46 AM 23.3963 -81.0456 202° Southwest 481 554 35,100  Climbing FlightAware ADS-B (KEYW)
Sat 10:28:16 AM 23.3338 -81.0722 202° Southwest 480 552 35,000 -100 Descending FlightAware ADS-B (KEYW)
Sat 10:28:46 AM 23.2707 -81.0990 202° Southwest 480 552 35,000  Level FlightAware ADS-B (KEYW)
Sat 10:29:16 AM 23.2085 -81.1254 202° Southwest 482 555 35,000  Level FlightAware ADS-B (KEYW)
Sat 10:29:46 AM 23.1461 -81.1518 202° Southwest 482 555 35,000 100 Level FlightAware ADS-B (KEYW)
Sat 10:30:16 AM 23.0840 -81.1781 202° Southwest 483 556 35,100 100 Climbing FlightAware ADS-B (KEYW)
Sat 10:30:46 AM 23.0207 -81.2049 202° Southwest 485 558 35,100  Level FlightAware ADS-B (KEYW)
Sat 10:31:16 AM 22.9581 -81.2314 202° Southwest 486 559 35,100  Level FlightAware ADS-B (KEYW)
Sat 10:31:45 AM 22.9049 -81.2538 202° Southwest 487 560 35,100  Level FlightAware ADS-B (KEYW)
Sat 10:32:17 AM 22.8325 -81.2844 202° Southwest 487 560 35,100  Level FlightAware ADS-B (KEYW)
Sat 10:32:47 AM 22.7683 -81.3114 202° Southwest 488 562 35,100  Level FlightAware ADS-B (KEYW)
Sat 10:33:17 AM 22.7055 -81.3379 202° Southwest 488 562 35,100 -100 Level FlightAware ADS-B (KEYW)
Sat 10:33:47 AM 22.6404 -81.3653 202° Southwest 489 563 35,000  Descending FlightAware ADS-B (KEYW)
Sat 10:34:17 AM 22.5781 -81.3915 202° Southwest 488 562 35,100 103 Climbing FlightAware ADS-B (KEYW)
Sat 10:34:45 AM 22.5198 -81.4159 202° Southwest 488 562 35,100 -100 Level FlightAware ADS-B (KEYW)
Sat 10:35:17 AM 22.4501 -81.4451 202° Southwest 487 560 35,000 -97 Descending FlightAware ADS-B (KEYW)
Sat 10:35:47 AM 22.3897 -81.4704 202° Southwest 487 560 35,000  Level FlightAware ADS-B (KEYW)
Sat 10:36:17 AM 22.3234 -81.4982 202° Southwest 486 559 35,000 100 Level FlightAware ADS-B (KEYW)
Sat 10:36:47 AM 22.2596 -81.5248 202° Southwest 487 560 35,100 102 Climbing FlightAware ADS-B (KEYW)
Sat 10:37:16 AM 22.2473 -81.5300 202° Southwest 489 563 35,100 -51 Level FlightAware ADS-B (KEYW)
Sat 10:38:45 AM 22.0119 -81.6282 202° Southwest 484 557 35,000 -39 Descending FlightAware ADS-B (KEYW)
Sat 10:39:48 AM 21.8812 -81.6825 202° Southwest 477 549 35,000  Level FlightAware ADS-B (KEYW)
Sat 10:40:09 AM 21.8418 -81.6989 202° Southwest 475 547 35,000 100 Level FlightAware ADS-B (KEYW)
Sat 10:40:48 AM 21.7585 -81.7336 202° Southwest 472 543 35,100 87 Climbing FlightAware ADS-B (KEYW)
Sat 10:41:18 AM 21.6968 -81.7591 202° Southwest 472 543 35,100  Level FlightAware ADS-B (KEYW)
Sat 10:41:48 AM 21.6383 -81.7833 202° Southwest 472 543 35,100 -100 Level FlightAware ADS-B (KEYW)
Sat 10:42:18 AM 21.5749 -81.8095 202° Southwest 472 543 35,000  Descending FlightAware ADS-B (KEYW)
Sat 10:42:48 AM 21.5134 -81.8349 202° Southwest 473 544 35,100 98 Climbing FlightAware ADS-B (KEYW)
Sat 10:43:19 AM 21.4505 -81.8608 202° Southwest 474 545 35,100  Level FlightAware ADS-B (KEYW)
Sat 10:43:22 AM 21.4484 -81.8617 202° Southwest 474 545 35,100  Level FlightAware ADS-B (KEYW)
Sat 10:44:36 AM 21.2913 -81.9266 202° Southwest 474 545 35,100  Level FlightAware ADS-B (KEYW)
Sat 10:45:33 AM 21.1744 -81.9746 202° Southwest 474 545 35,100  Level FlightAware ADS-B (KEYW)
Sat 10:45:39 AM 21.1622 -81.9797 202° Southwest 474 545 35,100  Level FlightAware ADS-B (KEYW)
Sat 10:46:16 AM 21.0866 -82.0107 201° Southwest 474 545 35,100  Level FlightAware ADS-B (KEYW)
Sat 10:46:49 AM 21.0210 -82.0376 201° Southwest 474 545 35,100  Level FlightAware ADS-B (KEYW)
Sat 10:49:00 AM 20.7895 -82.1512 205° Southwest  Level Estimated
Sat 10:50:00 AM 20.6834 -82.2032 205° Southwest  Level Estimated
Sat 10:51:00 AM 20.5722 -82.2408 198° South  Level FlightAware Approximate
Sat 10:52:00 AM 20.4610 -82.2784 198° South  Level FlightAware Approximate
Sat 10:53:00 AM 20.3498 -82.3159 198° South  Level FlightAware Approximate
Sat 10:54:00 AM 20.2386 -82.3534 198° South  Level FlightAware Approximate
Sat 10:55:00 AM 20.1273 -82.3908 198° South  Level FlightAware Approximate
Sat 10:56:00 AM 20.0216 -82.4433 205° Southwest  Level Estimated
Sat 10:57:00 AM 19.9160 -82.4959 205° Southwest  Level FlightAware Approximate
Sat 10:58:00 AM 19.8103 -82.5486 205° Southwest  Level FlightAware Approximate
Sat 10:59:00 AM 19.7047 -82.6011 205° Southwest  Level FlightAware Approximate
Sat 11:00:00 AM 19.5990 -82.6536 205° Southwest  Level FlightAware Approximate
Sat 11:01:00 AM 19.4933 -82.7060 205° Southwest  Level FlightAware Approximate
Sat 11:02:00 AM 19.3876 -82.7583 205° Southwest  Level FlightAware Approximate
Sat 11:03:00 AM 19.2819 -82.8106 205° Southwest  Level FlightAware Approximate
Sat 11:04:00 AM 19.1762 -82.8628 205° Southwest  Level FlightAware Approximate
Sat 11:05:00 AM 19.0705 -82.9149 205° Southwest  Level FlightAware Approximate
Sat 11:06:00 AM 18.9647 -82.9670 205° Southwest  Level FlightAware Approximate
Sat 11:07:00 AM 18.8589 -83.0190 205° Southwest  Level FlightAware Approximate
Sat 11:08:00 AM 18.7532 -83.0709 205° Southwest  Level FlightAware Approximate
Sat 11:09:00 AM 18.6474 -83.1228 205° Southwest  Level FlightAware Approximate
Sat 11:10:00 AM 18.5415 -83.1746 205° Southwest  Level FlightAware Approximate
Sat 11:11:00 AM 18.4357 -83.2263 205° Southwest  Level FlightAware Approximate
Sat 11:12:00 AM 18.3299 -83.2780 205° Southwest  Level FlightAware Approximate
Sat 11:13:00 AM 18.2240 -83.3296 205° Southwest  Level FlightAware Approximate
Sat 11:14:00 AM 18.1182 -83.3812 205° Southwest  Level FlightAware Approximate
Sat 11:15:00 AM 18.0123 -83.4327 205° Southwest  Level FlightAware Approximate
Sat 11:16:00 AM 17.9064 -83.4841 205° Southwest  Level FlightAware Approximate
Sat 11:17:00 AM 17.8005 -83.5355 205° Southwest  Level FlightAware Approximate
Sat 11:18:00 AM 17.6945 -83.5867 205° Southwest  Level FlightAware Approximate
Sat 11:19:00 AM 17.5886 -83.6380 205° Southwest  Level FlightAware Approximate
Sat 11:20:00 AM 17.4827 -83.6892 205° Southwest  Level FlightAware Approximate
Sat 11:21:00 AM 17.3767 -83.7403 205° Southwest  Level FlightAware Approximate
Sat 11:22:00 AM 17.2707 -83.7914 205° Southwest  Level FlightAware Approximate
Sat 11:23:00 AM 17.1647 -83.8424 205° Southwest  Level FlightAware Approximate
Sat 11:24:00 AM 17.0587 -83.8933 205° Southwest  Level FlightAware Approximate
Sat 11:25:00 AM 16.9527 -83.9442 205° Southwest  Level FlightAware Approximate
Sat 11:26:00 AM 16.8467 -83.9950 205° Southwest  Level FlightAware Approximate
Sat 11:27:00 AM 16.7406 -84.0458 205° Southwest  Level FlightAware Approximate
Sat 11:28:00 AM 16.6346 -84.0965 205° Southwest  Level FlightAware Approximate
Sat 11:29:00 AM 16.5285 -84.1472 205° Southwest  Level FlightAware Approximate
Sat 11:30:00 AM 16.4224 -84.1978 205° Southwest  Level FlightAware Approximate
Sat 11:31:00 AM 16.3164 -84.2484 205° Southwest  Level FlightAware Approximate
Sat 11:32:00 AM 16.2103 -84.2989 205° Southwest  Level FlightAware Approximate
Sat 11:33:00 AM 16.1042 -84.3493 205° Southwest  Level FlightAware Approximate
Sat 11:34:00 AM 15.9980 -84.3997 205° Southwest  Level FlightAware Approximate
Sat 11:35:00 AM 15.8919 -84.4501 205° Southwest  Level FlightAware Approximate
Sat 11:36:00 AM 15.7858 -84.5003 205° Southwest  Level FlightAware Approximate
Sat 11:37:00 AM 15.6796 -84.5506 204° Southwest  Level FlightAware Approximate
Sat 11:38:00 AM 15.5734 -84.6007 204° Southwest  Level FlightAware Approximate
Sat 11:39:00 AM 15.4672 -84.6509 204° Southwest  Level FlightAware Approximate
Sat 11:40:00 AM 15.3610 -84.7009 204° Southwest  Level FlightAware Approximate
Sat 11:41:00 AM 15.2548 -84.7510 204° Southwest  Level FlightAware Approximate
Sat 11:42:00 AM 15.1486 -84.8009 204° Southwest  Level FlightAware Approximate
Sat 11:43:00 AM 15.0424 -84.8509 204° Southwest  Level FlightAware Approximate
Sat 11:44:00 AM 14.9362 -84.9007 204° Southwest  Level FlightAware Approximate
Sat 11:45:00 AM 14.8295 -84.9497 205° Southwest  Level Estimated
Sat 11:46:00 AM 14.7242 -85.0015 205° Southwest  Level FlightAware Approximate
Sat 11:47:00 AM 14.6188 -85.0532 205° Southwest  Level FlightAware Approximate
Sat 11:48:00 AM 14.5134 -85.1048 205° Southwest  Level FlightAware Approximate
Sat 11:49:00 AM 14.4080 -85.1564 205° Southwest  Level FlightAware Approximate
Sat 11:50:00 AM 14.3026 -85.2080 205° Southwest  Level FlightAware Approximate
Sat 11:51:00 AM 14.1956 -85.2560 201° Southwest  Level Estimated
Sat 11:52:00 AM 14.0886 -85.3039 202° Southwest  Level Estimated
Sat 11:53:00 AM 13.9800 -85.3478 201° Southwest  Level FlightAware Approximate
Sat 11:54:00 AM 13.8731 -85.3959 206° Southwest  Level Estimated
Sat 11:55:00 AM 13.7662 -85.4439 206° Southwest  Level Estimated
Sat 11:56:00 AM 13.6593 -85.4919 206° Southwest  Level Estimated
Sat 11:57:00 AM 13.5523 -85.5399 206° Southwest  Level Estimated
Sat 11:58:00 AM 13.4535 -85.6036 212° Southwest  Level FlightAware Approximate
Sat 11:59:00 AM 13.3460 -85.6501 200° South  Level Estimated
Sat 12:00:00 PM 13.2385 -85.6966 206° Southwest  Level Estimated
Sat 12:01:00 PM 13.1309 -85.7430 203° Southwest  Level Estimated
Sat 12:02:00 PM 13.0234 -85.7894 201° Southwest  Level Estimated
Sat 12:03:00 PM 12.9159 -85.8359 203° Southwest  Level FlightAware Approximate
Sat 12:04:00 PM 12.8083 -85.8822 203° Southwest  Level Estimated
Sat 12:05:00 PM 12.7008 -85.9285 202° Southwest  Level Estimated
Sat 12:06:00 PM 12.5931 -85.9745 203° Southwest  Level FlightAware Approximate
Sat 12:07:00 PM 12.4855 -86.0207 203° Southwest  Level Estimated
Sat 12:08:00 PM 12.3764 -86.0629 201° Southwest  Level FlightAware Approximate
Sat 12:09:00 PM 12.2696 -86.1108 201° Southwest  Level Estimated
Sat 12:10:00 PM 12.1627 -86.1587 194° South  Level Estimated
Sat 12:11:00 PM 12.1500 -86.1500 194° South  Level FlightAware Approximate
Sat 12:12:00 PM 12.1415 -86.1682 194° South  Level Estimated
Sat 12:13:00 PM 12.1415 -86.1682 194° South  Level Estimated
Sat 12:14:00 PM 12.1415 -86.1682 194° South  Level Estimated
Sat 12:15:00 PM 12.1415 -86.1682 194° South  Level Estimated
Sat 12:16:00 PM 12.1415 -86.1682 194° South  Level Estimated
Sat 12:17:00 PM 12.1415 -86.1682 194° South  Level Estimated
Sat 12:18:00 PM 12.1415 -86.1682 194° South  Level Estimated
Sat 12:19:00 PM 12.1415 -86.1682 194° South  Level Estimated
Sat 12:20:00 PM 12.1415 -86.1682 194° South  Level Estimated
Sat 12:21:00 PM 12.1415 -86.1682 194° South  Level Estimated
Sat 12:22:00 PM 12.1415 -86.1682 194° South  Level Estimated
Sat 12:23:00 PM 12.1415 -86.1682 194° South  Level Estimated
Sat 12:24:00 PM 12.1415 -86.1682 194° South  Level Estimated
Sat 12:25:00 PM 12.1415 -86.1682 194° South  Level Estimated
Sat 12:26:00 PM 12.1415 -86.1682 194° South  Level Estimated
Sat 12:27:00 PM 12.1415 -86.1682 194° South  Level Estimated
Sat 12:28:00 PM 12.1415 -86.1682 194° South  Level Estimated
Sat 12:29:00 PM 12.1415 -86.1682 194° South  Level Estimated

Login

Don't have an account? Register now (free) for customized features, flight alerts, and more!